Time;durP1;ratioP1;P1;durP2;ratioP2;P2;SDS_P1;SDS_P2;PMS_P1;PMS_P2;Temp;Humidity;BMP_temperature;BMP_pressure;BME280_temperature;BME280_humidity;BME280_pressure;Samples;Min_cycle;Max_cycle;Signal;HPM_P1;HPM_P2
2022/06/29 00:02:20;;;;;;;7.53;4.53;;;;;;;;;;5084609;28;20024;-67
2022/06/29 00:04:46;;;;;;;6.23;4.17;;;;;;;;;;5087572;28;20106;-67
2022/06/29 00:07:11;;;;;;;9.83;4.53;;;;;;;;;;5088652;28;20031;-67
2022/06/29 00:09:36;;;;;;;7.53;4.67;;;;;;;;;;5079065;28;20020;-66
2022/06/29 00:12:02;;;;;;;5.47;4.17;;;;;;;;;;5086574;28;20066;-67
2022/06/29 00:14:27;;;;;;;9.20;4.27;;;;;;;;;;5082446;28;20027;-67
2022/06/29 00:16:52;;;;;;;6.53;4.63;;;;;;;;;;5080028;28;20628;-67
2022/06/29 00:19:17;;;;;;;8.40;4.50;;;;;;;;;;5088323;28;20091;-67
2022/06/29 00:21:43;;;;;;;6.57;4.40;;;;;;;;;;5086324;28;20029;-67
2022/06/29 00:24:08;;;;;;;8.13;4.50;;;;;;;;;;5089803;28;20020;-67
2022/06/29 00:26:33;;;;;;;9.77;4.80;;;;;;;;;;5079788;28;20027;-67
2022/06/29 00:28:58;;;;;;;10.10;4.47;;;;;;;;;;5076621;28;20024;-66
2022/06/29 00:31:23;;;;;;;6.83;4.07;;;;;;;;;;5080696;28;20028;-66
2022/06/29 00:33:49;;;;;;;8.17;4.27;;;;;;;;;;5084223;28;20031;-66
2022/06/29 00:36:14;;;;;;;5.97;4.30;;;;;;;;;;5083092;28;20063;-66
2022/06/29 00:38:39;;;;;;;9.50;4.57;;;;;;;;;;5082006;28;20058;-67
2022/06/29 00:41:04;;;;;;;7.80;4.50;;;;;;;;;;5087222;28;20027;-66
2022/06/29 00:43:38;;;;;;;7.73;4.20;;;;;;;;;;5080205;28;20024;-67
2022/06/29 00:46:03;;;;;;;8.73;4.77;;;;;;;;;;5078552;28;20074;-67
2022/06/29 00:48:28;;;;;;;6.80;4.70;;;;;;;;;;5085114;28;20047;-67
2022/06/29 00:50:54;;;;;;;7.03;4.60;;;;;;;;;;5086473;28;20059;-67
2022/06/29 00:53:20;;;;;;;6.90;4.90;;;;;;;;;;5085461;28;20028;-67
2022/06/29 00:55:47;;;;;;;10.27;4.60;;;;;;;;;;5085906;28;20024;-67
2022/06/29 00:58:15;;;;;;;7.40;4.47;;;;;;;;;;5083161;28;20032;-67
2022/06/29 01:00:40;;;;;;;7.17;4.73;;;;;;;;;;5078228;28;20504;-67
2022/06/29 01:03:07;;;;;;;7.20;4.80;;;;;;;;;;5082022;28;20135;-67
2022/06/29 01:05:32;;;;;;;6.77;4.63;;;;;;;;;;5085928;28;20043;-67
2022/06/29 01:07:58;;;;;;;6.97;4.60;;;;;;;;;;5084545;28;20425;-67
2022/06/29 01:10:23;;;;;;;7.33;4.50;;;;;;;;;;5079421;28;20494;-67
2022/06/29 01:12:49;;;;;;;7.30;4.83;;;;;;;;;;5082210;28;20028;-67
2022/06/29 01:15:14;;;;;;;7.07;4.60;;;;;;;;;;5083392;28;20020;-66
2022/06/29 01:17:40;;;;;;;6.23;4.70;;;;;;;;;;5086363;28;20027;-66
2022/06/29 01:20:06;;;;;;;7.57;4.60;;;;;;;;;;5081948;28;20129;-67
2022/06/29 01:22:31;;;;;;;8.23;5.00;;;;;;;;;;5083937;28;20024;-67
2022/06/29 01:24:56;;;;;;;6.17;4.63;;;;;;;;;;5089757;28;20149;-67
2022/06/29 01:27:23;;;;;;;7.10;5.20;;;;;;;;;;5087745;28;20024;-66
2022/06/29 01:29:48;;;;;;;8.07;5.03;;;;;;;;;;5088369;28;20022;-67
2022/06/29 01:32:13;;;;;;;6.90;5.27;;;;;;;;;;5089468;28;20016;-66
2022/06/29 01:34:39;;;;;;;8.53;4.90;;;;;;;;;;5089705;28;20034;-67
2022/06/29 01:37:05;;;;;;;7.47;5.10;;;;;;;;;;5087286;28;20142;-67
2022/06/29 01:39:30;;;;;;;8.43;5.00;;;;;;;;;;5084391;28;20023;-67
2022/06/29 01:41:56;;;;;;;7.20;4.90;;;;;;;;;;5082218;28;20039;-66
2022/06/29 01:44:21;;;;;;;7.13;5.10;;;;;;;;;;5087466;28;20016;-67
2022/06/29 01:46:46;;;;;;;7.80;4.83;;;;;;;;;;5084982;28;20024;-67
2022/06/29 01:49:12;;;;;;;6.97;4.23;;;;;;;;;;5086386;28;20019;-68
2022/06/29 01:51:37;;;;;;;6.37;4.40;;;;;;;;;;5084081;28;20492;-67
2022/06/29 01:54:03;;;;;;;6.37;4.13;;;;;;;;;;5089237;28;20024;-67
2022/06/29 01:56:28;;;;;;;9.87;4.90;;;;;;;;;;5088396;28;20033;-67
2022/06/29 01:58:53;;;;;;;8.97;4.60;;;;;;;;;;5088324;28;20032;-67
2022/06/29 02:01:18;;;;;;;8.47;4.80;;;;;;;;;;5085813;28;20067;-67
2022/06/29 02:03:44;;;;;;;11.33;5.00;;;;;;;;;;5088165;28;20055;-67
2022/06/29 02:06:10;;;;;;;8.53;4.90;;;;;;;;;;5089786;28;20479;-67
2022/06/29 02:08:35;;;;;;;7.27;5.10;;;;;;;;;;5075607;28;20036;-66
2022/06/29 02:11:00;;;;;;;6.63;4.87;;;;;;;;;;5081158;28;20024;-67
2022/06/29 02:13:26;;;;;;;7.03;5.23;;;;;;;;;;5084378;28;20024;-66
2022/06/29 02:15:51;;;;;;;7.57;5.67;;;;;;;;;;5088205;28;20048;-67
2022/06/29 02:18:17;;;;;;;12.50;5.77;;;;;;;;;;5077861;28;20077;-66
2022/06/29 02:20:42;;;;;;;8.23;5.67;;;;;;;;;;5084083;28;20059;-66
2022/06/29 02:23:07;;;;;;;13.00;6.30;;;;;;;;;;5089378;28;20024;-67
2022/06/29 02:25:32;;;;;;;11.03;6.20;;;;;;;;;;5082817;28;20020;-67
2022/06/29 02:27:58;;;;;;;10.27;5.70;;;;;;;;;;5083203;28;20017;-67
2022/06/29 02:35:52;;;;;;;8.43;5.73;;;;;;;;;;5084224;28;20587;-67
2022/06/29 02:38:18;;;;;;;11.73;6.07;;;;;;;;;;5087009;28;20024;-67
2022/06/29 02:40:44;;;;;;;10.50;5.83;;;;;;;;;;5077620;28;20047;-67
2022/06/29 02:43:09;;;;;;;12.70;6.23;;;;;;;;;;5089652;28;20016;-67
2022/06/29 02:45:34;;;;;;;12.00;5.90;;;;;;;;;;5076621;28;20024;-66
2022/06/29 02:48:00;;;;;;;10.80;5.80;;;;;;;;;;5086294;28;20066;-67
2022/06/29 02:50:25;;;;;;;7.97;5.80;;;;;;;;;;5082813;28;20036;-67
2022/06/29 02:52:50;;;;;;;10.23;6.43;;;;;;;;;;5085922;28;20043;-67
2022/06/29 02:55:15;;;;;;;10.43;6.20;;;;;;;;;;5084832;28;20107;-66
2022/06/29 02:57:40;;;;;;;10.63;6.53;;;;;;;;;;5087449;28;20115;-67
2022/06/29 03:00:06;;;;;;;8.93;6.60;;;;;;;;;;5084652;28;20157;-66
2022/06/29 03:02:31;;;;;;;13.67;6.87;;;;;;;;;;5085125;28;20060;-66
2022/06/29 03:04:57;;;;;;;11.57;6.97;;;;;;;;;;5081811;28;20028;-66
2022/06/29 03:07:22;;;;;;;13.97;7.40;;;;;;;;;;5080551;28;20086;-66
2022/06/29 03:09:47;;;;;;;14.93;7.03;;;;;;;;;;5079612;28;20696;-66
2022/06/29 03:12:12;;;;;;;12.63;7.27;;;;;;;;;;5086571;28;20039;-66
2022/06/29 03:14:38;;;;;;;13.97;7.30;;;;;;;;;;5084141;28;20012;-67
2022/06/29 03:17:03;;;;;;;12.50;7.37;;;;;;;;;;5088616;28;20017;-66
2022/06/29 03:19:28;;;;;;;11.17;7.17;;;;;;;;;;5081587;28;20456;-66
2022/06/29 03:21:53;;;;;;;10.17;7.10;;;;;;;;;;5088372;28;20035;-66
2022/06/29 03:24:19;;;;;;;11.90;7.07;;;;;;;;;;5082275;28;20020;-66
2022/06/29 03:26:44;;;;;;;10.83;6.90;;;;;;;;;;5088065;28;20024;-66
2022/06/29 03:29:09;;;;;;;16.70;7.27;;;;;;;;;;5076066;28;20100;-66
2022/06/29 03:31:34;;;;;;;11.90;6.57;;;;;;;;;;5085305;28;20032;-66
2022/06/29 03:34:00;;;;;;;8.70;6.70;;;;;;;;;;5084897;28;20040;-66
2022/06/29 03:36:25;;;;;;;10.80;6.90;;;;;;;;;;5082592;28;20073;-66
2022/06/29 03:38:50;;;;;;;14.50;7.23;;;;;;;;;;5081302;28;20038;-66
2022/06/29 03:41:15;;;;;;;9.97;6.83;;;;;;;;;;5087678;28;20063;-66
2022/06/29 03:43:40;;;;;;;15.13;7.30;;;;;;;;;;5084688;28;20035;-66
2022/06/29 03:46:06;;;;;;;12.97;6.53;;;;;;;;;;5086143;28;20020;-66
2022/06/29 03:48:31;;;;;;;15.90;7.77;;;;;;;;;;5084547;28;20062;-66
2022/06/29 03:50:56;;;;;;;11.07;6.87;;;;;;;;;;5079342;28;20032;-66
2022/06/29 03:53:21;;;;;;;19.30;7.27;;;;;;;;;;5083931;28;20107;-66
2022/06/29 03:55:47;;;;;;;12.67;6.80;;;;;;;;;;5084454;28;20052;-66
2022/06/29 03:58:12;;;;;;;14.73;6.97;;;;;;;;;;5083648;28;20035;-66
2022/06/29 04:00:37;;;;;;;14.33;7.23;;;;;;;;;;5081225;28;20028;-66
2022/06/29 04:03:02;;;;;;;10.53;7.50;;;;;;;;;;5085754;28;20101;-66
2022/06/29 04:05:28;;;;;;;11.43;7.33;;;;;;;;;;5078665;28;20051;-66
2022/06/29 04:07:53;;;;;;;11.63;6.87;;;;;;;;;;5078429;28;20035;-66
2022/06/29 04:10:18;;;;;;;13.73;6.83;;;;;;;;;;5082101;28;20438;-66
2022/06/29 04:12:43;;;;;;;11.10;6.60;;;;;;;;;;5080479;28;20074;-67
2022/06/29 04:15:09;;;;;;;13.03;6.07;;;;;;;;;;5082679;28;20020;-66
2022/06/29 04:17:34;;;;;;;9.70;5.77;;;;;;;;;;5086582;28;20055;-67
2022/06/29 04:20:00;;;;;;;14.73;6.60;;;;;;;;;;5090355;28;20074;-67
2022/06/29 04:22:25;;;;;;;11.70;6.10;;;;;;;;;;5084919;28;20448;-66
2022/06/29 04:24:50;;;;;;;11.23;6.30;;;;;;;;;;5084687;28;20081;-66
2022/06/29 04:27:16;;;;;;;11.40;5.77;;;;;;;;;;5089176;28;20031;-66
2022/06/29 04:29:42;;;;;;;13.60;6.20;;;;;;;;;;5085655;28;20029;-66
2022/06/29 04:32:07;;;;;;;12.13;6.73;;;;;;;;;;5089135;28;20024;-67
2022/06/29 04:34:32;;;;;;;12.07;7.30;;;;;;;;;;5089080;28;20085;-66
2022/06/29 04:36:57;;;;;;;10.88;6.65;;;;;;;;;;5081457;28;20054;-66
2022/06/29 04:39:23;;;;;;;9.38;5.93;;;;;;;;;;5090116;28;20375;-66
2022/06/29 04:41:48;;;;;;;10.00;5.18;;;;;;;;;;5086312;28;20035;-66
2022/06/29 04:44:14;;;;;;;9.43;5.47;;;;;;;;;;5088337;28;20028;-67
2022/06/29 04:46:39;;;;;;;13.43;5.63;;;;;;;;;;5084729;28;20016;-67
2022/06/29 04:49:04;;;;;;;10.50;5.28;;;;;;;;;;5081229;28;20024;-67
2022/06/29 04:51:30;;;;;;;10.05;5.32;;;;;;;;;;5085048;28;20032;-66
2022/06/29 04:53:56;;;;;;;6.90;4.90;;;;;;;;;;5089202;28;20024;-67
2022/06/29 04:56:22;;;;;;;7.35;5.57;;;;;;;;;;5088269;28;20020;-67
2022/06/29 04:58:48;;;;;;;10.05;5.40;;;;;;;;;;5089391;28;20020;-66
2022/06/29 05:01:13;;;;;;;10.20;5.20;;;;;;;;;;5083788;28;20035;-66
2022/06/29 05:03:39;;;;;;;8.55;4.85;;;;;;;;;;5086327;28;20125;-67
2022/06/29 05:06:04;;;;;;;9.38;5.00;;;;;;;;;;5087046;28;20031;-67
2022/06/29 05:08:29;;;;;;;7.03;5.00;;;;;;;;;;5081233;28;20074;-67
2022/06/29 05:10:55;;;;;;;9.50;5.03;;;;;;;;;;5087684;28;20028;-66
2022/06/29 05:13:20;;;;;;;8.35;4.70;;;;;;;;;;5090835;28;20562;-67
2022/06/29 05:15:46;;;;;;;7.50;4.57;;;;;;;;;;5087548;28;20028;-67
2022/06/29 05:18:11;;;;;;;11.23;5.22;;;;;;;;;;5092640;28;20020;-67
2022/06/29 05:20:36;;;;;;;8.63;4.68;;;;;;;;;;5088504;28;20052;-67
2022/06/29 05:23:04;;;;;;;12.13;4.82;;;;;;;;;;5085706;28;20016;-67
2022/06/29 05:25:29;;;;;;;9.13;4.60;;;;;;;;;;5088103;28;20044;-67
2022/06/29 05:27:54;;;;;;;6.47;4.40;;;;;;;;;;5089219;28;20468;-67
2022/06/29 05:30:20;;;;;;;10.18;4.70;;;;;;;;;;5092727;28;20048;-67
2022/06/29 05:32:45;;;;;;;8.57;4.22;;;;;;;;;;5087930;28;20032;-67
2022/06/29 05:35:10;;;;;;;10.05;4.63;;;;;;;;;;5083099;28;20016;-66
2022/06/29 05:37:35;;;;;;;9.65;4.03;;;;;;;;;;5082233;28;20111;-67
2022/06/29 05:40:01;;;;;;;8.23;4.40;;;;;;;;;;5084818;28;20054;-67
2022/06/29 05:42:26;;;;;;;9.68;4.60;;;;;;;;;;5087627;28;20023;-67
2022/06/29 05:44:51;;;;;;;10.05;4.38;;;;;;;;;;5083235;28;20008;-67
2022/06/29 05:47:17;;;;;;;8.77;4.70;;;;;;;;;;5078821;28;20489;-67
2022/06/29 05:49:42;;;;;;;8.32;4.90;;;;;;;;;;5075280;28;20024;-67
2022/06/29 05:52:08;;;;;;;10.52;4.82;;;;;;;;;;5078528;28;20099;-67
2022/06/29 05:54:33;;;;;;;13.27;5.13;;;;;;;;;;5081651;28;20395;-67
2022/06/29 05:56:58;;;;;;;8.27;4.60;;;;;;;;;;5083947;28;20020;-67
2022/06/29 05:59:23;;;;;;;8.65;4.68;;;;;;;;;;5089076;28;20773;-67
2022/06/29 06:01:49;;;;;;;9.20;4.50;;;;;;;;;;5083487;28;20024;-67
2022/06/29 06:04:14;;;;;;;11.00;4.70;;;;;;;;;;5082585;28;20022;-67
2022/06/29 06:06:39;;;;;;;13.80;4.90;;;;;;;;;;5090110;28;20468;-67
2022/06/29 06:09:05;;;;;;;8.52;5.00;;;;;;;;;;5075415;28;20020;-67
2022/06/29 06:11:30;;;;;;;9.90;5.00;;;;;;;;;;5076736;28;20135;-67
2022/06/29 06:13:55;;;;;;;10.95;4.47;;;;;;;;;;5079694;28;20036;-67
2022/06/29 06:16:20;;;;;;;10.70;4.20;;;;;;;;;;5072430;28;20028;-67
2022/06/29 06:18:46;;;;;;;12.63;4.60;;;;;;;;;;5071498;28;20028;-67
2022/06/29 06:21:11;;;;;;;8.48;3.88;;;;;;;;;;5081511;28;20024;-67
2022/06/29 06:23:36;;;;;;;6.25;4.00;;;;;;;;;;5076462;28;20032;-67
2022/06/29 06:26:02;;;;;;;6.88;3.80;;;;;;;;;;5081408;28;20436;-68
2022/06/29 06:28:27;;;;;;;7.32;3.50;;;;;;;;;;5084340;28;20519;-67
2022/06/29 06:30:52;;;;;;;7.47;3.25;;;;;;;;;;5072346;28;20031;-68
2022/06/29 06:33:17;;;;;;;7.28;3.33;;;;;;;;;;5072556;28;20131;-68
2022/06/29 06:35:42;;;;;;;6.53;3.03;;;;;;;;;;5075999;28;20099;-68
2022/06/29 06:38:08;;;;;;;8.00;3.40;;;;;;;;;;5090709;28;20032;-68
2022/06/29 06:43:17;;;;;;;7.60;2.95;;;;;;;;;;5091487;28;20023;-67
2022/06/29 06:45:42;;;;;;;5.68;2.70;;;;;;;;;;5091167;28;20024;-68
2022/06/29 06:48:08;;;;;;;4.95;2.70;;;;;;;;;;5091899;28;20049;-67
2022/06/29 06:50:33;;;;;;;7.53;3.28;;;;;;;;;;5040719;28;1451723;-68
2022/06/29 06:52:58;;;;;;;6.60;3.10;;;;;;;;;;5092942;28;20084;-67
2022/06/29 06:55:23;;;;;;;7.85;2.90;;;;;;;;;;5074670;28;20020;-68
2022/06/29 06:57:49;;;;;;;4.25;2.60;;;;;;;;;;5072942;28;20052;-67
2022/06/29 07:00:14;;;;;;;4.97;2.50;;;;;;;;;;5074669;28;20035;-67
2022/06/29 07:02:39;;;;;;;5.53;2.85;;;;;;;;;;5072382;28;20042;-67
2022/06/29 07:05:05;;;;;;;6.55;2.40;;;;;;;;;;5075760;28;20012;-68
2022/06/29 07:07:30;;;;;;;8.82;2.60;;;;;;;;;;5092328;28;20627;-68
2022/06/29 07:09:55;;;;;;;4.50;2.70;;;;;;;;;;5089059;28;20478;-67
2022/06/29 07:12:20;;;;;;;5.50;2.60;;;;;;;;;;5093018;28;20016;-67
2022/06/29 07:14:46;;;;;;;8.07;2.60;;;;;;;;;;5085352;28;20052;-68
2022/06/29 07:17:11;;;;;;;5.20;2.70;;;;;;;;;;5080640;28;20433;-67
2022/06/29 07:19:36;;;;;;;6.13;2.65;;;;;;;;;;5092019;28;20012;-67
2022/06/29 07:22:01;;;;;;;5.85;2.88;;;;;;;;;;5085482;28;20024;-68
2022/06/29 07:24:27;;;;;;;5.22;2.47;;;;;;;;;;5072315;28;20059;-68
2022/06/29 07:26:52;;;;;;;4.97;2.30;;;;;;;;;;5072217;28;20354;-68
2022/06/29 07:29:17;;;;;;;6.07;2.20;;;;;;;;;;5072693;28;20423;-68
2022/06/29 07:31:42;;;;;;;5.28;2.40;;;;;;;;;;5088720;28;20097;-67
2022/06/29 07:34:08;;;;;;;5.60;2.60;;;;;;;;;;5092385;28;20024;-67
2022/06/29 07:36:33;;;;;;;4.47;2.30;;;;;;;;;;5092638;28;20027;-68
2022/06/29 07:38:58;;;;;;;5.65;2.28;;;;;;;;;;5077414;28;20031;-68
2022/06/29 07:41:23;;;;;;;4.97;2.40;;;;;;;;;;5078106;28;20107;-67
2022/06/29 07:43:49;;;;;;;4.07;2.30;;;;;;;;;;5071547;28;20031;-67
2022/06/29 07:46:14;;;;;;;6.38;2.33;;;;;;;;;;5073959;28;20057;-68
2022/06/29 07:48:39;;;;;;;4.65;2.00;;;;;;;;;;5074953;28;20025;-68
2022/06/29 07:51:04;;;;;;;5.25;2.20;;;;;;;;;;5071774;28;20597;-68
2022/06/29 07:53:31;;;;;;;4.75;1.85;;;;;;;;;;5071518;28;20027;-68
2022/06/29 07:55:56;;;;;;;5.35;2.20;;;;;;;;;;5071351;28;20056;-68
2022/06/29 07:58:21;;;;;;;4.78;1.90;;;;;;;;;;5089739;28;20105;-67
2022/06/29 08:00:46;;;;;;;8.35;2.00;;;;;;;;;;5089380;28;20483;-68
2022/06/29 08:03:12;;;;;;;3.50;2.10;;;;;;;;;;5078013;28;20563;-68
2022/06/29 08:05:37;;;;;;;4.30;1.85;;;;;;;;;;5071470;28;20028;-67
2022/06/29 08:08:03;;;;;;;4.00;1.90;;;;;;;;;;5085421;28;20558;-68
2022/06/29 08:10:28;;;;;;;4.55;2.00;;;;;;;;;;5083207;28;20027;-67
2022/06/29 08:12:54;;;;;;;5.65;1.90;;;;;;;;;;5071542;28;20044;-68
2022/06/29 08:15:19;;;;;;;3.78;2.00;;;;;;;;;;5087000;28;20016;-67
2022/06/29 08:17:45;;;;;;;5.68;1.80;;;;;;;;;;5075865;28;20028;-67
2022/06/29 08:20:10;;;;;;;5.10;1.80;;;;;;;;;;5071405;28;20480;-67
2022/06/29 08:22:35;;;;;;;6.35;2.03;;;;;;;;;;5091648;28;20051;-67
2022/06/29 08:25:01;;;;;;;6.63;2.25;;;;;;;;;;5078651;28;20091;-67
2022/06/29 08:27:27;;;;;;;4.53;1.50;;;;;;;;;;5071629;28;20444;-68
2022/06/29 08:29:52;;;;;;;3.88;1.75;;;;;;;;;;5072215;28;20020;-68
2022/06/29 08:32:17;;;;;;;3.72;1.67;;;;;;;;;;5070644;28;20043;-67
2022/06/29 08:34:43;;;;;;;4.47;1.80;;;;;;;;;;5079600;28;20039;-68
2022/06/29 08:37:08;;;;;;;3.83;2.08;;;;;;;;;;5088319;28;20020;-67
2022/06/29 08:39:33;;;;;;;4.50;2.30;;;;;;;;;;5078779;28;20051;-67
2022/06/29 08:42:04;;;;;;;4.50;2.00;;;;;;;;;;5071408;28;20028;-68
2022/06/29 08:44:38;;;;;;;3.53;1.92;;;;;;;;;;5070860;28;20028;-67
2022/06/29 08:47:04;;;;;;;3.95;1.90;;;;;;;;;;5084571;28;20031;-68
2022/06/29 08:49:30;;;;;;;6.32;2.10;;;;;;;;;;5089748;28;20439;-68
2022/06/29 08:51:56;;;;;;;4.78;1.98;;;;;;;;;;5072276;28;20044;-67
2022/06/29 08:54:23;;;;;;;4.82;1.92;;;;;;;;;;5070734;28;20036;-67
2022/06/29 08:56:48;;;;;;;4.82;1.88;;;;;;;;;;5071089;28;20024;-68
2022/06/29 08:59:14;;;;;;;5.60;2.00;;;;;;;;;;5071143;28;20030;-68
2022/06/29 09:01:39;;;;;;;5.30;2.20;;;;;;;;;;5071639;28;20017;-68
2022/06/29 09:04:06;;;;;;;4.53;2.10;;;;;;;;;;5091079;28;20047;-67
2022/06/29 09:06:31;;;;;;;3.88;1.98;;;;;;;;;;5090248;28;20054;-67
2022/06/29 09:08:56;;;;;;;4.70;1.98;;;;;;;;;;5088754;28;20008;-68
2022/06/29 09:11:23;;;;;;;5.00;2.30;;;;;;;;;;5091180;28;20028;-68
2022/06/29 09:14:07;;;;;;;4.57;2.10;;;;;;;;;;5091124;28;20099;-67
2022/06/29 09:16:49;;;;;;;7.32;2.00;;;;;;;;;;5089151;28;20103;-67
2022/06/29 09:19:17;;;;;;;5.78;2.20;;;;;;;;;;5090869;28;20071;-67
2022/06/29 09:21:50;;;;;;;6.72;2.10;;;;;;;;;;5072501;28;20060;-67
2022/06/29 09:24:19;;;;;;;6.20;2.20;;;;;;;;;;5081704;28;20047;-67
2022/06/29 09:26:51;;;;;;;5.03;2.08;;;;;;;;;;5071395;28;20021;-67
2022/06/29 09:29:39;;;;;;;5.47;1.90;;;;;;;;;;5082500;28;20017;-68
2022/06/29 09:32:04;;;;;;;5.93;1.90;;;;;;;;;;5080946;28;20052;-68
2022/06/29 09:34:33;;;;;;;5.05;2.20;;;;;;;;;;5080017;28;20051;-67
2022/06/29 09:37:00;;;;;;;5.20;2.38;;;;;;;;;;5079158;28;20033;-68
2022/06/29 09:39:31;;;;;;;6.03;2.00;;;;;;;;;;5068032;28;20031;-67
2022/06/29 09:41:59;;;;;;;7.35;2.30;;;;;;;;;;5069346;28;20024;-68
2022/06/29 09:44:24;;;;;;;4.22;2.28;;;;;;;;;;5071111;28;20383;-68
2022/06/29 09:46:52;;;;;;;8.52;2.50;;;;;;;;;;5079057;28;20017;-68
2022/06/29 09:49:18;;;;;;;4.78;2.55;;;;;;;;;;5089745;28;20422;-68
2022/06/29 09:51:44;;;;;;;4.70;2.03;;;;;;;;;;5093168;28;20035;-68
2022/06/29 09:54:11;;;;;;;4.18;2.20;;;;;;;;;;5076400;28;20064;-68
2022/06/29 09:56:44;;;;;;;5.93;2.40;;;;;;;;;;5083028;28;20111;-67
2022/06/29 09:59:11;;;;;;;6.65;2.15;;;;;;;;;;5073471;28;20052;-67
2022/06/29 10:04:20;;;;;;;6.78;2.58;;;;;;;;;;5074201;28;20024;-67
2022/06/29 10:06:46;;;;;;;7.10;2.33;;;;;;;;;;5073366;28;20013;-67
2022/06/29 10:09:11;;;;;;;4.55;2.20;;;;;;;;;;5082303;28;20105;-67
2022/06/29 10:14:26;;;;;;;4.35;2.20;;;;;;;;;;5073284;28;20143;-67
2022/06/29 10:16:57;;;;;;;6.38;2.42;;;;;;;;;;5081242;28;20102;-67
2022/06/29 10:19:22;;;;;;;7.05;2.78;;;;;;;;;;5084304;28;20383;-67
2022/06/29 10:21:47;;;;;;;5.45;2.20;;;;;;;;;;5078820;28;20116;-67
2022/06/29 10:24:15;;;;;;;6.28;2.30;;;;;;;;;;5071527;28;20107;-67
2022/06/29 10:26:41;;;;;;;7.38;3.00;;;;;;;;;;5082925;28;20082;-67
2022/06/29 10:29:09;;;;;;;6.25;3.28;;;;;;;;;;5076612;28;20429;-67
2022/06/29 10:31:49;;;;;;;7.93;2.80;;;;;;;;;;5076790;28;20490;-67
2022/06/29 10:34:26;;;;;;;6.88;3.08;;;;;;;;;;5090835;28;20016;-67
2022/06/29 10:37:12;;;;;;;8.05;3.08;;;;;;;;;;5091937;28;20039;-67
2022/06/29 10:39:37;;;;;;;7.18;3.20;;;;;;;;;;5083482;28;20166;-67
2022/06/29 10:44:59;;;;;;;5.53;2.70;;;;;;;;;;5082372;28;20034;-67
2022/06/29 10:47:24;;;;;;;5.57;2.67;;;;;;;;;;5083846;28;20439;-67
2022/06/29 10:50:10;;;;;;;4.97;2.80;;;;;;;;;;5092694;28;20045;-67
2022/06/29 10:52:37;;;;;;;4.40;2.50;;;;;;;;;;5064843;28;20029;-67
2022/06/29 10:55:02;;;;;;;6.70;2.63;;;;;;;;;;5086656;28;20384;-67
2022/06/29 10:57:28;;;;;;;5.78;2.30;;;;;;;;;;5084793;28;20027;-67
2022/06/29 10:59:53;;;;;;;4.45;2.38;;;;;;;;;;5086217;28;20032;-67
2022/06/29 11:02:19;;;;;;;4.95;2.10;;;;;;;;;;5075497;28;20491;-67
2022/06/29 11:04:44;;;;;;;3.40;1.80;;;;;;;;;;5078537;28;20499;-67
2022/06/29 11:12:48;;;;;;;5.05;2.28;;;;;;;;;;5072397;28;20423;-66
2022/06/29 11:17:57;;;;;;;3.78;2.40;;;;;;;;;;5075350;28;20510;-67
2022/06/29 11:20:22;;;;;;;4.07;2.63;;;;;;;;;;5077213;28;20029;-67
2022/06/29 11:22:48;;;;;;;4.93;2.70;;;;;;;;;;5076697;28;20051;-67
2022/06/29 11:25:13;;;;;;;5.43;2.40;;;;;;;;;;5089815;28;20012;-67
2022/06/29 11:27:38;;;;;;;4.55;2.25;;;;;;;;;;5078761;28;20079;-67
2022/06/29 11:30:05;;;;;;;6.30;2.80;;;;;;;;;;5073785;28;20384;-67
2022/06/29 11:32:38;;;;;;;4.32;2.72;;;;;;;;;;5073463;28;20388;-67
2022/06/29 11:35:04;;;;;;;4.97;2.30;;;;;;;;;;5086806;28;20073;-67
2022/06/29 11:37:29;;;;;;;4.47;2.15;;;;;;;;;;5087890;28;20096;-67
2022/06/29 11:39:55;;;;;;;3.97;2.40;;;;;;;;;;5071053;28;20013;-67
2022/06/29 11:45:05;;;;;;;5.60;2.10;;;;;;;;;;5071569;28;20119;-67
2022/06/29 11:47:30;;;;;;;3.50;2.00;;;;;;;;;;5072701;28;20803;-67
2022/06/29 11:49:55;;;;;;;5.53;2.00;;;;;;;;;;5085096;28;20034;-67
2022/06/29 11:52:32;;;;;;;6.32;2.20;;;;;;;;;;5091984;28;20261;-67
2022/06/29 11:55:00;;;;;;;5.85;2.00;;;;;;;;;;5086330;28;20052;-67
2022/06/29 11:57:26;;;;;;;3.55;1.92;;;;;;;;;;5070769;28;20035;-67
2022/06/29 11:59:52;;;;;;;6.05;2.00;;;;;;;;;;5070853;28;20029;-67
2022/06/29 12:02:17;;;;;;;5.82;2.13;;;;;;;;;;5069622;28;20468;-67
2022/06/29 12:04:43;;;;;;;4.20;2.25;;;;;;;;;;5073889;28;20028;-67
2022/06/29 12:07:13;;;;;;;3.75;2.30;;;;;;;;;;5083340;28;20456;-66
2022/06/29 12:09:39;;;;;;;5.70;2.33;;;;;;;;;;5071050;28;20025;-66
2022/06/29 12:12:10;;;;;;;4.40;2.70;;;;;;;;;;5085214;28;20034;-67
2022/06/29 12:14:37;;;;;;;4.90;2.50;;;;;;;;;;5070982;28;20020;-67
2022/06/29 12:17:02;;;;;;;7.32;2.47;;;;;;;;;;5069715;28;20024;-66
2022/06/29 12:19:34;;;;;;;6.35;2.30;;;;;;;;;;5070482;28;20024;-67
2022/06/29 12:21:59;;;;;;;4.35;2.50;;;;;;;;;;5077137;28;20016;-67
2022/06/29 12:24:25;;;;;;;4.65;2.50;;;;;;;;;;5084822;28;20464;-67
2022/06/29 12:26:50;;;;;;;5.32;2.30;;;;;;;;;;5082240;28;20048;-67
2022/06/29 12:29:16;;;;;;;10.52;2.33;;;;;;;;;;5079994;28;20476;-66
2022/06/29 12:31:42;;;;;;;6.00;2.70;;;;;;;;;;5089110;28;20027;-66
2022/06/29 12:34:07;;;;;;;4.00;2.20;;;;;;;;;;5073676;28;20096;-66
2022/06/29 12:36:32;;;;;;;4.28;2.55;;;;;;;;;;5072304;28;20503;-67
2022/06/29 12:38:58;;;;;;;7.32;2.50;;;;;;;;;;5070811;28;20048;-66
2022/06/29 12:41:24;;;;;;;5.93;2.55;;;;;;;;;;5071293;28;20515;-66
2022/06/29 12:43:49;;;;;;;4.50;2.40;;;;;;;;;;5071293;28;20021;-66
2022/06/29 12:46:14;;;;;;;4.28;2.58;;;;;;;;;;5079832;28;20024;-67
2022/06/29 12:48:39;;;;;;;3.80;2.30;;;;;;;;;;5088600;28;20039;-67
2022/06/29 12:51:06;;;;;;;3.85;2.30;;;;;;;;;;5074781;28;20020;-67
2022/06/29 12:53:31;;;;;;;5.95;2.88;;;;;;;;;;5071012;28;20111;-66
2022/06/29 12:55:57;;;;;;;4.00;2.70;;;;;;;;;;5071063;28;20521;-67
2022/06/29 12:58:22;;;;;;;5.22;2.60;;;;;;;;;;5071041;28;20029;-67
2022/06/29 13:00:48;;;;;;;6.55;2.30;;;;;;;;;;5070975;28;20483;-66
2022/06/29 13:03:14;;;;;;;7.40;2.50;;;;;;;;;;5079743;28;20043;-68
2022/06/29 13:05:39;;;;;;;5.65;2.75;;;;;;;;;;5080076;28;20058;-66
2022/06/29 13:08:05;;;;;;;3.55;2.67;;;;;;;;;;5071139;28;20415;-66
2022/06/29 13:10:31;;;;;;;6.88;2.60;;;;;;;;;;5070715;28;20409;-66
2022/06/29 13:12:56;;;;;;;5.70;2.65;;;;;;;;;;5071092;28;20019;-67
2022/06/29 13:15:21;;;;;;;4.03;2.50;;;;;;;;;;5070871;28;20092;-66
2022/06/29 13:17:46;;;;;;;4.55;2.33;;;;;;;;;;5084735;28;20052;-66
2022/06/29 13:20:12;;;;;;;4.43;2.45;;;;;;;;;;5092746;28;20051;-66
2022/06/29 13:22:37;;;;;;;4.13;2.10;;;;;;;;;;5095223;28;20426;-66
2022/06/29 13:25:03;;;;;;;5.22;2.10;;;;;;;;;;5094675;28;20012;-66
2022/06/29 13:27:28;;;;;;;5.80;2.00;;;;;;;;;;5092998;28;20363;-66
2022/06/29 13:29:53;;;;;;;4.75;2.00;;;;;;;;;;5075523;28;20460;-67
2022/06/29 13:32:19;;;;;;;7.70;2.17;;;;;;;;;;5083006;28;20020;-67
2022/06/29 13:34:44;;;;;;;5.15;1.83;;;;;;;;;;5075364;28;20099;-67
2022/06/29 13:37:09;;;;;;;3.90;1.98;;;;;;;;;;5082504;28;20419;-66
2022/06/29 13:39:35;;;;;;;4.28;2.08;;;;;;;;;;5094053;28;20024;-67
2022/06/29 13:42:00;;;;;;;3.75;1.90;;;;;;;;;;5094380;28;20036;-67
2022/06/29 13:44:25;;;;;;;6.55;2.00;;;;;;;;;;5094628;28;20028;-67
2022/06/29 13:46:51;;;;;;;5.57;1.85;;;;;;;;;;5086401;28;20030;-67
2022/06/29 13:49:16;;;;;;;5.03;2.00;;;;;;;;;;5093693;28;20055;-66
2022/06/29 13:51:41;;;;;;;3.15;1.60;;;;;;;;;;5088043;28;20071;-67
2022/06/29 13:54:06;;;;;;;4.90;1.73;;;;;;;;;;5086808;28;20028;-66
2022/06/29 13:56:32;;;;;;;5.38;1.70;;;;;;;;;;5077292;28;20494;-67
2022/06/29 13:58:57;;;;;;;6.72;2.15;;;;;;;;;;5082556;28;20070;-66
2022/06/29 14:01:22;;;;;;;4.45;1.90;;;;;;;;;;5091911;28;20043;-66
2022/06/29 14:03:48;;;;;;;9.25;1.80;;;;;;;;;;5074196;28;20028;-66
2022/06/29 14:06:13;;;;;;;4.50;1.90;;;;;;;;;;5085871;28;20030;-66
2022/06/29 14:08:39;;;;;;;3.33;1.75;;;;;;;;;;5076935;28;20016;-66
2022/06/29 14:11:04;;;;;;;3.10;1.70;;;;;;;;;;5090493;28;20046;-66
2022/06/29 14:13:29;;;;;;;4.35;1.60;;;;;;;;;;5092728;28;20217;-66
2022/06/29 14:15:55;;;;;;;4.20;1.75;;;;;;;;;;5076550;28;20042;-67
2022/06/29 14:18:20;;;;;;;6.95;1.80;;;;;;;;;;5074993;28;20506;-66
2022/06/29 14:20:46;;;;;;;5.53;1.60;;;;;;;;;;5087141;28;20023;-66
2022/06/29 14:23:11;;;;;;;3.85;1.98;;;;;;;;;;5074420;28;20020;-67
2022/06/29 14:25:36;;;;;;;5.70;2.00;;;;;;;;;;5078384;28;20020;-66
2022/06/29 14:28:02;;;;;;;3.53;1.80;;;;;;;;;;5077801;28;20016;-66
2022/06/29 14:30:27;;;;;;;5.07;1.90;;;;;;;;;;5093041;28;20028;-66
2022/06/29 14:32:53;;;;;;;5.40;2.30;;;;;;;;;;5085521;28;20024;-66
2022/06/29 14:35:19;;;;;;;4.15;2.08;;;;;;;;;;5093810;28;20357;-66
2022/06/29 14:37:44;;;;;;;5.55;2.30;;;;;;;;;;5074857;28;20078;-67
2022/06/29 14:40:09;;;;;;;4.25;2.20;;;;;;;;;;5085926;28;20379;-67
2022/06/29 14:42:35;;;;;;;3.72;2.20;;;;;;;;;;5083500;28;20552;-66
2022/06/29 14:45:01;;;;;;;3.55;1.95;;;;;;;;;;5075139;28;20081;-66
2022/06/29 14:47:26;;;;;;;2.80;1.80;;;;;;;;;;5076655;28;20020;-67
2022/06/29 14:49:52;;;;;;;4.90;2.40;;;;;;;;;;5072207;28;20040;-66
2022/06/29 14:52:17;;;;;;;5.28;2.50;;;;;;;;;;5072995;28;20029;-66
2022/06/29 14:54:42;;;;;;;5.38;2.33;;;;;;;;;;5077890;28;20016;-67
2022/06/29 14:57:08;;;;;;;6.65;2.40;;;;;;;;;;5081245;28;20392;-67
2022/06/29 14:59:33;;;;;;;7.40;2.55;;;;;;;;;;5073209;28;20020;-66
2022/06/29 15:01:59;;;;;;;7.93;2.22;;;;;;;;;;5079789;28;20024;-67